Time;durP1;ratioP1;P1;durP2;ratioP2;P2;SDS_P1;SDS_P2;PMS_P1;PMS_P2;Temp;Humidity;BMP_temperature;BMP_pressure;BME280_temperature;BME280_humidity;BME280_pressure;Samples;Min_cycle;Max_cycle;Signal;HPM_P1;HPM_P2
2022/11/10 00:00:33;;;;;;;8.03;3.20;;;;;;;9.67;100.00;100809.34;7386870;19;20437;-52
2022/11/10 00:03:03;;;;;;;18.03;3.60;;;;;;;9.63;100.00;100810.03;7390842;19;20403;-53
2022/11/10 00:05:37;;;;;;;11.07;3.63;;;;;;;9.61;100.00;100814.19;7388271;19;20478;-51
2022/11/10 00:08:09;;;;;;;13.40;3.63;;;;;;;9.56;100.00;100802.00;7391490;19;20422;-54
2022/11/10 00:10:55;;;;;;;15.77;3.50;;;;;;;9.54;100.00;100808.75;7387259;19;20403;-52
2022/11/10 00:13:26;;;;;;;14.07;3.37;;;;;;;9.54;100.00;100811.34;7390820;19;20458;-49
2022/11/10 00:18:38;;;;;;;6.67;3.57;;;;;;;9.52;100.00;100819.81;7390287;19;20732;-55
2022/11/10 00:21:11;;;;;;;11.67;4.80;;;;;;;9.51;100.00;100808.63;7386909;19;21183;-54
2022/11/10 00:23:41;;;;;;;9.47;4.00;;;;;;;9.50;100.00;100814.59;7390711;19;20412;-53
2022/11/10 00:26:16;;;;;;;19.73;4.70;;;;;;;9.49;100.00;100815.38;7389053;19;20415;-56
2022/11/10 00:28:46;;;;;;;9.77;4.40;;;;;;;9.45;100.00;100810.91;7388869;19;20411;-52
2022/11/10 00:31:16;;;;;;;15.10;4.37;;;;;;;9.38;100.00;100816.59;7387944;19;20905;-56
2022/11/10 00:33:46;;;;;;;11.70;4.60;;;;;;;9.35;100.00;100826.72;7390205;19;20368;-55
2022/11/10 00:36:18;;;;;;;11.83;4.50;;;;;;;9.32;100.00;100833.50;7387681;19;20431;-54
2022/11/10 00:38:47;;;;;;;8.57;4.23;;;;;;;9.30;100.00;100830.00;7389672;19;21057;-53
2022/11/10 00:41:16;;;;;;;9.93;4.30;;;;;;;9.26;100.00;100833.22;7387789;19;20419;-56
2022/11/10 00:43:46;;;;;;;10.83;5.40;;;;;;;9.25;100.00;100827.97;7390007;19;20497;-51
2022/11/10 00:46:16;;;;;;;12.10;4.60;;;;;;;9.16;100.00;100834.47;7385191;19;20411;-53
2022/11/10 00:48:45;;;;;;;12.13;5.20;;;;;;;9.17;100.00;100837.91;7389225;19;20414;-51
2022/11/10 00:51:22;;;;;;;12.83;6.03;;;;;;;9.10;100.00;100841.00;7386939;19;20423;-53
2022/11/10 00:53:51;;;;;;;18.93;5.30;;;;;;;9.07;100.00;100830.56;7389371;19;20399;-57
2022/11/10 00:56:21;;;;;;;16.43;5.87;;;;;;;9.01;100.00;100837.16;7387419;19;20423;-55
2022/11/10 00:58:51;;;;;;;12.73;4.80;;;;;;;8.95;100.00;100844.56;7389119;19;20416;-54
2022/11/10 01:01:23;;;;;;;20.23;5.93;;;;;;;8.93;100.00;100847.88;7387343;19;20992;-51
2022/11/10 01:03:52;;;;;;;24.47;5.90;;;;;;;8.90;100.00;100848.59;7389544;19;20396;-54
2022/11/10 01:06:24;;;;;;;12.20;4.87;;;;;;;8.84;100.00;100856.91;7388432;19;20846;-50
2022/11/10 01:08:54;;;;;;;16.90;5.50;;;;;;;8.82;100.00;100852.50;7388507;19;20404;-52
2022/11/10 01:11:25;;;;;;;20.30;5.77;;;;;;;8.80;100.00;100851.50;7387409;19;20427;-53
2022/11/10 01:13:56;;;;;;;15.40;5.00;;;;;;;8.77;100.00;100853.13;7389702;19;21035;-54
2022/11/10 01:16:28;;;;;;;13.07;4.90;;;;;;;8.76;100.00;100866.81;7384784;19;20769;-53
2022/11/10 01:18:59;;;;;;;10.43;5.50;;;;;;;8.73;100.00;100869.22;7388434;19;20395;-56
2022/11/10 01:21:31;;;;;;;13.77;5.70;;;;;;;8.69;100.00;100874.13;7387688;19;20790;-50
2022/11/10 01:24:01;;;;;;;21.47;5.27;;;;;;;8.68;100.00;100886.13;7389542;19;20407;-56
2022/11/10 01:26:33;;;;;;;16.67;5.60;;;;;;;8.66;100.00;100885.13;7387425;19;20411;-52
2022/11/10 01:29:03;;;;;;;17.27;5.03;;;;;;;8.65;100.00;100898.81;7388479;19;20740;-55
2022/11/10 01:31:33;;;;;;;17.77;4.80;;;;;;;8.62;100.00;100902.09;7387373;19;20419;-56
2022/11/10 01:34:02;;;;;;;20.80;5.53;;;;;;;8.63;100.00;100905.56;7389510;19;20379;-56
2022/11/10 01:36:34;;;;;;;18.20;5.27;;;;;;;8.62;100.00;100914.09;7385204;19;20423;-54
2022/11/10 01:39:04;;;;;;;19.33;4.87;;;;;;;8.56;100.00;100912.06;7391430;19;20494;-51
2022/11/10 01:41:33;;;;;;;17.17;4.57;;;;;;;8.56;100.00;100908.63;7387047;19;20774;-51
2022/11/10 01:44:17;;;;;;;17.07;4.73;;;;;;;8.48;100.00;100916.81;7390200;19;20451;-55
2022/11/10 01:46:47;;;;;;;16.13;5.10;;;;;;;8.44;100.00;100925.16;7385732;19;20419;-51
2022/11/10 01:49:17;;;;;;;10.77;4.10;;;;;;;8.46;100.00;100928.66;7388705;19;20399;-51
2022/11/10 01:51:51;;;;;;;13.00;3.87;;;;;;;8.43;100.00;100928.53;7387228;19;20414;-54
2022/11/10 01:54:24;;;;;;;21.67;4.90;;;;;;;8.39;100.00;100926.59;7389268;19;20959;-52
2022/11/10 01:56:56;;;;;;;12.77;5.00;;;;;;;8.36;100.00;100932.44;7389960;19;20433;-56
2022/11/10 01:59:28;;;;;;;19.20;4.90;;;;;;;8.34;100.00;100939.19;7394714;19;20458;-50
2022/11/10 02:02:03;;;;;;;6.90;4.10;;;;;;;8.34;100.00;100943.44;7400829;19;20649;-54
2022/11/10 02:04:32;;;;;;;13.00;3.80;;;;;;;8.31;100.00;100953.56;7394604;19;20751;-52
2022/11/10 02:07:05;;;;;;;19.80;5.27;;;;;;;8.29;100.00;100950.00;7392501;19;20391;-52
2022/11/10 02:09:34;;;;;;;14.23;4.73;;;;;;;8.24;100.00;100958.38;7393422;19;20509;-53
2022/11/10 02:12:04;;;;;;;13.50;4.70;;;;;;;8.24;100.00;100960.97;7396388;19;20403;-53
2022/11/10 02:14:33;;;;;;;9.73;3.90;;;;;;;8.21;100.00;100967.63;7393852;19;20387;-55
2022/11/10 02:17:03;;;;;;;19.57;4.17;;;;;;;8.23;100.00;100971.16;7395935;19;20395;-55
2022/11/10 02:19:32;;;;;;;10.53;4.23;;;;;;;8.20;100.00;100968.41;7392671;19;20427;-50
2022/11/10 02:22:04;;;;;;;11.33;4.80;;;;;;;8.21;100.00;100973.63;7400200;19;20739;-53
2022/11/10 02:24:34;;;;;;;17.07;4.40;;;;;;;8.18;100.00;100983.75;7394078;19;20383;-56
2022/11/10 02:27:04;;;;;;;13.97;4.80;;;;;;;8.15;100.00;100983.56;7396060;19;20383;-53
2022/11/10 02:29:33;;;;;;;10.70;4.07;;;;;;;8.16;100.00;100993.03;7391776;19;20438;-53
2022/11/10 02:32:03;;;;;;;11.57;4.20;;;;;;;8.14;100.00;100991.22;7395881;19;20400;-51
2022/11/10 02:34:32;;;;;;;9.33;4.00;;;;;;;8.16;100.00;101005.91;7390034;19;20767;-53
2022/11/10 02:37:04;;;;;;;12.33;4.17;;;;;;;8.15;100.00;101004.13;7399162;19;20392;-51
2022/11/10 02:39:34;;;;;;;15.97;4.00;;;;;;;8.12;100.00;101006.53;7392926;19;20395;-50
2022/11/10 02:42:03;;;;;;;14.30;4.97;;;;;;;8.08;100.00;101007.16;7395005;19;20410;-54
2022/11/10 02:44:32;;;;;;;15.57;4.73;;;;;;;8.09;100.00;101024.34;7390819;19;20418;-55
2022/11/10 02:47:02;;;;;;;14.00;4.07;;;;;;;8.08;100.00;101022.59;7395305;19;20388;-52
2022/11/10 02:49:31;;;;;;;13.70;3.90;;;;;;;8.06;100.00;101022.50;7391211;19;20411;-52
2022/11/10 02:52:01;;;;;;;8.70;4.40;;;;;;;8.07;100.00;101023.38;7394863;19;20419;-52
2022/11/10 02:54:33;;;;;;;9.90;3.73;;;;;;;8.04;100.00;101026.66;7392908;19;20923;-56
2022/11/10 02:57:02;;;;;;;16.20;4.73;;;;;;;8.03;100.00;101032.59;7395427;19;20727;-50
2022/11/10 02:59:32;;;;;;;13.17;4.93;;;;;;;8.00;100.00;101028.97;7391957;19;20797;-50
2022/11/10 03:02:01;;;;;;;8.93;4.20;;;;;;;7.97;100.00;101043.44;7398736;19;20434;-52
2022/11/10 03:04:31;;;;;;;9.93;3.80;;;;;;;7.94;100.00;101045.81;7392858;19;20423;-50
2022/11/10 03:07:00;;;;;;;15.43;4.87;;;;;;;7.93;100.00;101044.06;7394784;19;20767;-57
2022/11/10 03:09:32;;;;;;;15.60;4.83;;;;;;;7.88;100.00;101050.59;7391266;19;20419;-54
2022/11/10 03:12:02;;;;;;;20.20;5.37;;;;;;;7.89;100.00;101061.78;7394584;19;20423;-55
2022/11/10 03:14:31;;;;;;;21.07;4.67;;;;;;;7.91;100.00;101066.22;7392617;19;20383;-57
2022/11/10 03:17:01;;;;;;;20.53;5.47;;;;;;;7.84;100.00;101069.19;7391900;19;20448;-57
2022/11/10 03:19:30;;;;;;;12.90;5.03;;;;;;;7.81;100.00;101075.03;7392016;19;20953;-55
2022/11/10 03:22:00;;;;;;;15.30;5.40;;;;;;;7.80;100.00;101078.41;7393868;19;20395;-56
2022/11/10 03:24:29;;;;;;;14.63;5.83;;;;;;;7.73;100.00;101085.69;7392195;19;20415;-55
2022/11/10 03:27:01;;;;;;;16.73;6.20;;;;;;;7.74;100.00;101101.16;7394075;19;20931;-56
2022/11/10 03:29:31;;;;;;;11.33;5.70;;;;;;;7.72;100.00;101091.59;7390070;19;20423;-51
2022/11/10 03:32:00;;;;;;;19.77;6.90;;;;;;;7.72;100.00;101094.16;7394155;19;20383;-58
2022/11/10 03:34:30;;;;;;;15.70;5.70;;;;;;;7.67;100.00;101097.38;7394425;19;20392;-52
2022/11/10 03:37:00;;;;;;;19.47;6.83;;;;;;;7.64;100.00;101104.88;7391895;19;20399;-56
2022/11/10 03:39:29;;;;;;;15.00;6.70;;;;;;;7.65;100.00;101106.66;7388378;19;20987;-51
2022/11/10 03:42:01;;;;;;;15.23;6.77;;;;;;;7.62;100.00;101103.00;7397218;19;20754;-57
2022/11/10 03:44:31;;;;;;;10.73;6.00;;;;;;;7.57;100.00;101102.75;7391186;19;20430;-53
2022/11/10 03:47:02;;;;;;;12.43;6.30;;;;;;;7.56;100.00;101100.97;7393336;19;20407;-55
2022/11/10 03:49:31;;;;;;;16.27;7.70;;;;;;;7.57;100.00;101095.03;7392396;19;20419;-56
2022/11/10 03:52:01;;;;;;;17.97;7.57;;;;;;;7.53;100.00;101099.13;7393237;19;20940;-52
2022/11/10 03:54:30;;;;;;;15.23;7.70;;;;;;;7.50;100.00;101105.75;7391197;19;20420;-52
2022/11/10 03:57:03;;;;;;;21.77;8.07;;;;;;;7.51;100.00;101100.72;7391328;19;20392;-52
2022/11/10 03:59:33;;;;;;;19.03;7.80;;;;;;;7.52;100.00;101104.16;7390493;19;21218;-56
2022/11/10 04:02:02;;;;;;;14.70;7.80;;;;;;;7.52;100.00;101117.00;7392843;19;20384;-52
2022/11/10 04:09:56;;;;;;;27.80;8.77;;;;;;;7.54;100.00;101123.13;7389374;19;20403;-55
2022/11/10 04:17:53;;;;;;;21.17;8.77;;;;;;;7.58;100.00;101155.88;7392390;19;20412;-54
2022/11/10 04:20:22;;;;;;;20.03;9.97;;;;;;;7.58;100.00;101163.59;7386392;19;20403;-53
2022/11/10 04:26:27;;;;;;;27.47;10.73;;;;;;;7.60;100.00;101169.72;7389959;19;20411;-55
2022/11/10 04:28:26;;;;;;;29.40;12.93;;;;;;;7.63;100.00;101172.47;7390455;19;20429;-56
2022/11/10 04:30:56;;;;;;;21.77;11.03;;;;;;;7.69;100.00;101172.81;7389328;19;20423;-55
2022/11/10 04:33:25;;;;;;;22.57;11.10;;;;;;;7.73;100.00;101173.91;7391942;19;20407;-54
2022/11/10 04:35:54;;;;;;;35.00;12.70;;;;;;;7.75;100.00;101174.88;7388773;19;20453;-55
2022/11/10 04:38:24;;;;;;;30.17;13.30;;;;;;;7.79;100.00;101186.25;7390940;19;20392;-54
2022/11/10 04:40:54;;;;;;;20.60;9.90;;;;;;;7.90;100.00;101182.59;7388557;19;20942;-55
2022/11/10 04:43:23;;;;;;;31.10;12.73;;;;;;;7.92;100.00;101191.31;7391571;19;20398;-56
2022/11/10 04:45:56;;;;;;;26.70;12.30;;;;;;;7.90;100.00;101199.72;7388750;19;20993;-54
2022/11/10 04:48:26;;;;;;;29.57;12.80;;;;;;;7.91;100.00;101188.66;7390883;19;20391;-55
2022/11/10 04:50:56;;;;;;;27.50;11.67;;;;;;;7.93;100.00;101203.34;7388126;19;20405;-54
2022/11/10 04:53:26;;;;;;;29.80;12.60;;;;;;;7.94;100.00;101197.41;7391143;19;20459;-53
2022/11/10 04:55:55;;;;;;;24.63;12.40;;;;;;;7.94;100.00;101202.56;7388880;19;20434;-54
2022/11/10 04:58:25;;;;;;;27.23;13.77;;;;;;;7.97;100.00;101209.56;7390424;19;20391;-54
2022/11/10 05:00:57;;;;;;;36.60;12.90;;;;;;;7.99;100.00;101219.94;7388093;19;20400;-52
2022/11/10 05:03:26;;;;;;;33.43;11.77;;;;;;;8.00;100.00;101225.16;7390685;19;20407;-53
2022/11/10 05:05:56;;;;;;;36.73;13.73;;;;;;;8.01;100.00;101231.19;7387961;19;20411;-51
2022/11/10 05:08:25;;;;;;;33.17;13.23;;;;;;;8.00;100.00;101232.84;7390009;19;20429;-56
2022/11/10 05:10:54;;;;;;;29.97;13.50;;;;;;;8.03;100.00;101242.44;7387648;19;20395;-55
2022/11/10 05:13:24;;;;;;;27.77;13.80;;;;;;;8.06;100.00;101247.78;7390510;19;20390;-55
2022/11/10 05:15:53;;;;;;;28.80;13.97;;;;;;;8.09;100.00;101242.81;7387716;19;20407;-53
2022/11/10 05:18:26;;;;;;;29.83;14.30;;;;;;;8.10;100.00;101247.13;7389776;19;20395;-55
2022/11/10 05:20:55;;;;;;;35.03;15.37;;;;;;;8.08;100.00;101253.88;7387194;19;20535;-52
2022/11/10 05:23:40;;;;;;;30.77;14.67;;;;;;;8.09;100.00;101259.13;7390648;19;20415;-55
2022/11/10 05:26:11;;;;;;;31.13;16.30;;;;;;;8.15;100.00;101270.56;7387412;19;20411;-58
2022/11/10 05:28:41;;;;;;;34.87;15.20;;;;;;;8.12;100.00;101276.41;7388530;19;20963;-56
2022/11/10 05:31:11;;;;;;;32.60;17.17;;;;;;;8.15;100.00;101265.44;7387003;19;20424;-51
2022/11/10 05:33:43;;;;;;;36.90;18.20;;;;;;;8.15;100.00;101280.84;7388651;19;20414;-56
2022/11/10 05:36:12;;;;;;;43.03;19.47;;;;;;;8.14;100.00;101279.97;7387446;19;20444;-55
2022/11/10 05:38:42;;;;;;;44.80;17.97;;;;;;;8.15;100.00;101284.28;7388968;19;20933;-57
2022/11/10 05:41:12;;;;;;;37.13;18.80;;;;;;;8.21;100.00;101287.22;7386341;19;20502;-56
2022/11/10 05:43:42;;;;;;;35.27;19.83;;;;;;;8.18;100.00;101299.91;7389399;19;20383;-55
2022/11/10 05:46:11;;;;;;;39.90;18.40;;;;;;;8.16;100.00;101295.47;7390384;19;20457;-53
2022/11/10 05:48:43;;;;;;;42.87;20.83;;;;;;;8.17;100.00;101299.81;7388909;19;20947;-56
2022/11/10 05:51:13;;;;;;;31.00;17.43;;;;;;;8.18;100.00;101307.63;7386986;19;20403;-55
2022/11/10 05:53:42;;;;;;;31.83;15.47;;;;;;;8.19;100.00;101317.13;7389321;19;20822;-55
2022/11/10 05:56:11;;;;;;;45.10;18.37;;;;;;;8.19;100.00;101318.78;7389985;19;20813;-58
2022/11/10 05:58:41;;;;;;;40.87;18.13;;;;;;;8.16;100.00;101334.03;7392391;19;20770;-53
2022/11/10 06:01:10;;;;;;;37.53;16.23;;;;;;;8.15;100.00;101320.28;7386483;19;20411;-56
2022/11/10 06:03:42;;;;;;;35.87;18.10;;;;;;;8.15;100.00;101320.28;7387448;19;20388;-53
2022/11/10 06:06:12;;;;;;;46.50;17.83;;;;;;;8.15;100.00;101335.72;7389930;19;20468;-52
2022/11/10 06:08:41;;;;;;;42.93;17.40;;;;;;;8.14;100.00;101336.50;7390483;19;20422;-50
2022/11/10 06:11:11;;;;;;;42.83;17.73;;;;;;;8.19;100.00;101350.53;7386018;19;20407;-53
2022/11/10 06:13:41;;;;;;;44.80;18.00;;;;;;;8.18;100.00;101353.91;7391894;19;20395;-53
2022/11/10 06:16:10;;;;;;;29.30;15.03;;;;;;;8.16;100.00;101352.91;7387161;19;20395;-51
2022/11/10 06:18:39;;;;;;;27.00;14.00;;;;;;;8.14;100.00;101372.50;7387969;19;20395;-56
2022/11/10 06:21:11;;;;;;;41.90;15.30;;;;;;;8.15;100.00;101371.69;7386830;19;20446;-56
2022/11/10 06:23:41;;;;;;;33.20;15.27;;;;;;;8.12;100.00;101384.38;7388675;19;20398;-53
2022/11/10 06:26:11;;;;;;;27.80;15.53;;;;;;;8.07;100.00;101383.19;7386358;19;20407;-50
2022/11/10 06:28:41;;;;;;;36.83;16.37;;;;;;;8.06;100.00;101399.41;7387218;19;20414;-51
2022/11/10 06:31:10;;;;;;;33.20;14.20;;;;;;;8.04;100.00;101409.59;7383918;19;20407;-50
2022/11/10 06:33:41;;;;;;;37.30;15.40;;;;;;;8.01;100.00;101406.84;7388040;19;20391;-55
2022/11/10 06:36:13;;;;;;;34.90;14.40;;;;;;;8.06;100.00;101414.84;7385325;19;20415;-51
2022/11/10 06:38:43;;;;;;;34.50;15.13;;;;;;;8.02;100.00;101423.13;7387691;19;20772;-50
2022/11/10 06:41:12;;;;;;;31.40;14.83;;;;;;;8.01;100.00;101424.84;7385353;19;20411;-54
2022/11/10 06:43:42;;;;;;;28.83;15.53;;;;;;;8.01;100.00;101434.22;7388084;19;20753;-51
2022/11/10 06:46:11;;;;;;;38.17;14.50;;;;;;;7.97;100.00;101436.59;7392007;19;20415;-52
2022/11/10 06:48:41;;;;;;;33.87;12.40;;;;;;;7.98;100.00;101440.03;7394184;19;20419;-52
2022/11/10 06:51:13;;;;;;;34.23;14.43;;;;;;;7.96;100.00;101437.38;7390422;19;20414;-50
2022/11/10 06:53:43;;;;;;;31.83;13.97;;;;;;;7.96;100.00;101439.94;7394980;19;20391;-53
2022/11/10 06:56:12;;;;;;;35.27;15.77;;;;;;;8.00;100.00;101456.44;7391028;19;20415;-52
2022/11/10 06:58:42;;;;;;;33.53;13.80;;;;;;;7.99;100.00;101448.66;7391774;19;20407;-58
2022/11/10 07:01:11;;;;;;;38.33;18.50;;;;;;;8.00;100.00;101460.72;7387919;19;20426;-54
2022/11/10 07:03:41;;;;;;;31.90;14.43;;;;;;;7.99;100.00;101451.22;7392011;19;20463;-55
2022/11/10 07:06:33;;;;;;;52.00;21.87;;;;;;;8.03;100.00;101461.78;7388976;19;20990;-59
2022/11/10 07:09:03;;;;;;;77.37;26.57;;;;;;;8.03;100.00;101468.59;7390547;19;20394;-57
2022/11/10 07:11:32;;;;;;;30.80;15.10;;;;;;;7.99;100.00;101471.78;7387695;19;20444;-59
2022/11/10 07:14:01;;;;;;;49.00;18.67;;;;;;;7.96;100.00;101475.91;7392562;19;21031;-53
2022/11/10 07:16:31;;;;;;;24.53;11.73;;;;;;;7.92;100.00;101483.34;7388781;19;20416;-56
2022/11/10 07:19:00;;;;;;;28.37;13.27;;;;;;;7.96;100.00;101473.34;7389551;19;20392;-57
2022/11/10 07:21:32;;;;;;;26.73;12.47;;;;;;;7.97;100.00;101488.00;7389578;19;20785;-53
2022/11/10 07:24:02;;;;;;;38.13;18.70;;;;;;;7.98;100.00;101496.56;7392556;19;20418;-55
2022/11/10 07:26:31;;;;;;;30.50;13.93;;;;;;;8.00;100.00;101512.09;7388813;19;20438;-54
2022/11/10 07:29:01;;;;;;;29.77;14.70;;;;;;;7.99;100.00;101510.34;7391020;19;20437;-52
2022/11/10 07:31:30;;;;;;;38.23;12.90;;;;;;;8.00;100.00;101512.09;7389253;19;20419;-53
2022/11/10 07:33:59;;;;;;;33.03;13.67;;;;;;;8.02;100.00;101510.50;7392889;19;20396;-56
2022/11/10 07:36:29;;;;;;;26.70;12.40;;;;;;;8.07;100.00;101504.91;7389634;19;21096;-53
2022/11/10 07:39:01;;;;;;;45.30;16.37;;;;;;;8.09;100.00;101498.16;7389919;19;20411;-57
2022/11/10 07:41:30;;;;;;;27.90;10.80;;;;;;;8.12;100.00;101515.47;7389878;19;20438;-56
2022/11/10 07:44:00;;;;;;;48.57;18.00;;;;;;;8.21;100.00;101515.16;7392553;19;20407;-51
2022/11/10 07:46:30;;;;;;;35.50;14.10;;;;;;;8.19;100.00;101529.56;7392042;19;20453;-53
2022/11/10 07:48:59;;;;;;;35.73;15.23;;;;;;;8.21;100.00;101528.88;7391714;19;20383;-57
2022/11/10 07:51:29;;;;;;;26.47;13.27;;;;;;;8.19;100.00;101527.91;7389538;19;20449;-57
2022/11/10 07:54:01;;;;;;;30.90;14.17;;;;;;;8.20;100.00;101531.38;7392024;19;20387;-56
2022/11/10 07:56:31;;;;;;;40.10;16.83;;;;;;;8.20;100.00;101529.69;7392717;19;20455;-53
2022/11/10 07:59:00;;;;;;;26.93;13.00;;;;;;;8.23;100.00;101540.19;7390431;19;20415;-55
2022/11/10 08:01:29;;;;;;;34.40;13.70;;;;;;;8.28;100.00;101542.13;7389993;19;20434;-56
2022/11/10 08:03:59;;;;;;;40.70;14.20;;;;;;;8.33;100.00;101540.75;7392201;19;20415;-54
2022/11/10 08:06:28;;;;;;;34.40;15.10;;;;;;;8.31;100.00;101550.94;7390147;19;20426;-56
2022/11/10 08:09:06;;;;;;;30.70;14.97;;;;;;;8.37;100.00;101553.88;7394377;19;20412;-55
2022/11/10 08:11:36;;;;;;;35.70;14.13;;;;;;;8.39;100.00;101538.56;7389840;19;20419;-57
2022/11/10 08:14:05;;;;;;;28.80;13.50;;;;;;;8.45;100.00;101546.66;7392529;19;20418;-50
2022/11/10 08:16:35;;;;;;;41.20;15.53;;;;;;;8.49;100.00;101551.22;7389918;19;20525;-53
2022/11/10 08:19:04;;;;;;;30.97;11.40;;;;;;;8.51;100.00;101567.66;7389917;19;20406;-52
2022/11/10 08:21:33;;;;;;;30.50;14.80;;;;;;;8.62;100.00;101567.47;7388861;19;20411;-54
2022/11/10 08:24:03;;;;;;;45.47;17.17;;;;;;;8.71;100.00;101562.88;7392288;19;20388;-53
2022/11/10 08:26:35;;;;;;;37.67;16.00;;;;;;;8.68;100.00;101572.09;7385893;19;20428;-55
2022/11/10 08:29:04;;;;;;;31.60;14.90;;;;;;;8.73;100.00;101576.72;7390352;19;20418;-54
2022/11/10 08:31:34;;;;;;;30.50;15.20;;;;;;;8.81;100.00;101574.63;7389442;19;20419;-50
2022/11/10 08:34:04;;;;;;;28.03;10.63;;;;;;;8.80;100.00;101592.53;7391506;19;20379;-53
2022/11/10 08:36:34;;;;;;;37.30;15.60;;;;;;;8.82;100.00;101588.41;7389022;19;20403;-54
2022/11/10 08:39:03;;;;;;;35.00;14.63;;;;;;;8.78;100.00;101600.19;7390338;19;20384;-50
2022/11/10 08:41:35;;;;;;;37.60;15.67;;;;;;;8.80;100.00;101592.53;7388437;19;20406;-54
2022/11/10 08:44:05;;;;;;;39.47;17.80;;;;;;;8.90;100.00;101597.47;7391642;19;20383;-50
2022/11/10 08:46:39;;;;;;;34.80;15.13;;;;;;;8.96;100.00;101605.56;7388526;19;20415;-52
2022/11/10 08:49:08;;;;;;;34.40;15.93;;;;;;;9.01;100.00;101609.31;7391153;19;20406;-50
2022/11/10 08:51:38;;;;;;;51.53;23.60;;;;;;;9.11;100.00;101609.88;7388462;19;20430;-55
2022/11/10 08:54:07;;;;;;;31.93;13.70;;;;;;;9.03;100.00;101627.44;7391139;19;20392;-55
2022/11/10 08:56:39;;;;;;;34.27;16.40;;;;;;;9.11;100.00;101625.31;7388283;19;20419;-54
2022/11/10 08:59:09;;;;;;;31.60;15.90;;;;;;;9.13;100.00;101622.06;7389247;19;20419;-53
2022/11/10 09:01:38;;;;;;;37.00;15.30;;;;;;;9.16;100.00;101624.84;7388428;19;20437;-51
2022/11/10 09:04:08;;;;;;;34.97;16.37;;;;;;;9.23;100.00;101630.34;7391154;19;20388;-52
2022/11/10 09:06:37;;;;;;;47.90;16.87;;;;;;;9.26;100.00;101626.28;7387139;19;20763;-55
2022/11/10 09:09:07;;;;;;;38.10;15.93;;;;;;;9.32;100.00;101636.06;7390606;19;20475;-54
2022/11/10 09:11:36;;;;;;;29.40;14.10;;;;;;;9.30;100.00;101641.13;7387634;19;20738;-55
2022/11/10 09:14:08;;;;;;;33.87;13.80;;;;;;;9.31;100.00;101630.03;7390688;19;20395;-53
2022/11/10 09:16:38;;;;;;;40.20;15.90;;;;;;;9.46;100.00;101644.63;7387814;19;20407;-51
2022/11/10 09:19:07;;;;;;;33.83;14.50;;;;;;;9.56;100.00;101654.72;7388864;19;20384;-53
2022/11/10 09:21:37;;;;;;;42.87;16.23;;;;;;;9.62;100.00;101661.91;7387203;19;20457;-53
2022/11/10 09:24:08;;;;;;;37.43;15.90;;;;;;;9.64;100.00;101656.84;7390575;19;20387;-51
2022/11/10 09:26:37;;;;;;;24.40;11.40;;;;;;;9.70;100.00;101664.94;7387767;19;20944;-55
2022/11/10 09:29:09;;;;;;;36.70;14.03;;;;;;;9.68;100.00;101669.09;7388678;19;20425;-55
2022/11/10 09:31:39;;;;;;;32.30;14.10;;;;;;;9.76;100.00;101670.47;7387678;19;20434;-51
2022/11/10 09:34:08;;;;;;;38.70;14.87;;;;;;;9.88;100.00;101670.28;7390031;19;20387;-53
2022/11/10 09:36:39;;;;;;;30.63;14.90;;;;;;;9.91;100.00;101674.75;7387782;19;20462;-54
2022/11/10 09:39:09;;;;;;;39.97;14.17;;;;;;;9.93;100.00;101679.19;7392500;19;20399;-51
2022/11/10 09:41:41;;;;;;;29.43;14.00;;;;;;;9.84;100.00;101684.69;7391573;19;20444;-52
2022/11/10 09:44:19;;;;;;;28.20;14.60;;;;;;;9.86;100.00;101698.56;7389766;19;20392;-54
2022/11/10 09:46:52;;;;;;;39.93;13.43;;;;;;;9.91;100.00;101705.69;7388489;19;20435;-54
2022/11/10 09:49:29;;;;;;;38.73;14.50;;;;;;;10.03;100.00;101700.34;7388840;19;20407;-50
2022/11/10 09:51:59;;;;;;;37.77;13.00;;;;;;;10.04;100.00;101700.44;7389005;19;20434;-55
2022/11/10 09:54:36;;;;;;;36.53;14.70;;;;;;;10.11;100.00;101715.47;7387126;19;20403;-50
2022/11/10 09:57:08;;;;;;;24.43;13.60;;;;;;;10.24;100.00;101713.63;7389495;19;20379;-51
2022/11/10 09:59:40;;;;;;;33.27;13.00;;;;;;;10.15;100.00;101720.84;7386135;19;20511;-51
2022/11/10 10:02:18;;;;;;;25.10;9.53;;;;;;;10.18;100.00;101726.16;7389163;19;20393;-50
2022/11/10 10:04:59;;;;;;;32.80;14.80;;;;;;;10.21;100.00;101721.19;7386806;19;20408;-50
2022/11/10 10:07:32;;;;;;;39.00;10.70;;;;;;;10.25;100.00;101711.13;7389095;19;20415;-50
2022/11/10 10:10:04;;;;;;;32.93;11.87;;;;;;;10.25;100.00;101725.72;7384063;19;20428;-50
2022/11/10 10:12:48;;;;;;;30.10;13.80;;;;;;;10.29;100.00;101719.94;7389906;19;20430;-52
2022/11/10 10:15:25;;;;;;;33.23;12.60;;;;;;;10.27;100.00;101732.75;7389940;19;20431;-50
2022/11/10 10:18:05;;;;;;;30.47;13.30;;;;;;;10.38;100.00;101735.97;7393805;19;20399;-53
2022/11/10 10:20:40;;;;;;;36.47;12.53;;;;;;;10.42;100.00;101730.97;7392905;19;20474;-53
2022/11/10 10:23:16;;;;;;;26.40;13.00;;;;;;;10.49;100.00;101739.19;7396820;19;20385;-50
2022/11/10 10:25:46;;;;;;;32.37;12.50;;;;;;;10.49;100.00;101743.47;7393534;19;20411;-49
2022/11/10 10:28:22;;;;;;;34.70;14.40;;;;;;;10.48;100.00;101746.84;7395535;19;20387;-52
2022/11/10 10:30:57;;;;;;;28.67;11.63;;;;;;;10.40;100.00;101752.41;7393396;19;20415;-51
2022/11/10 10:33:26;;;;;;;33.43;13.50;;;;;;;10.44;100.00;101750.03;7395622;19;20395;-51
2022/11/10 10:35:56;;;;;;;31.07;12.33;;;;;;;10.47;100.00;101752.81;7391954;19;20403;-52
2022/11/10 10:38:32;;;;;;;27.73;13.00;;;;;;;10.56;100.00;101760.19;7395234;19;20391;-53
2022/11/10 10:41:04;;;;;;;36.03;12.70;;;;;;;10.70;100.00;101764.44;7392163;19;20422;-50
2022/11/10 10:43:34;;;;;;;30.03;12.37;;;;;;;10.74;100.00;101763.84;7392481;19;20459;-56
2022/11/10 10:46:11;;;;;;;25.07;11.23;;;;;;;10.91;100.00;101763.88;7392236;19;20456;-52
2022/11/10 10:48:41;;;;;;;25.33;11.40;;;;;;;11.01;100.00;101770.47;7394701;19;20399;-50
2022/11/10 10:51:10;;;;;;;24.63;9.43;;;;;;;11.03;100.00;101763.72;7392403;19;20929;-53
2022/11/10 10:53:49;;;;;;;20.10;10.97;;;;;;;10.92;100.00;101766.56;7394661;19;20387;-53
2022/11/10 10:56:20;;;;;;;25.67;11.30;;;;;;;10.93;100.00;101757.13;7392222;19;20439;-53
2022/11/10 10:58:53;;;;;;;23.80;9.40;;;;;;;10.86;100.00;101771.38;7393865;19;20416;-54
2022/11/10 11:01:31;;;;;;;32.57;12.90;;;;;;;10.88;100.00;101768.88;7391751;19;20954;-53
2022/11/10 11:04:01;;;;;;;27.77;8.90;;;;;;;10.90;100.00;101773.34;7391892;19;20393;-50
2022/11/10 11:06:32;;;;;;;23.23;11.10;;;;;;;10.93;100.00;101773.50;7392013;19;20434;-51
2022/11/10 11:09:05;;;;;;;27.57;10.63;;;;;;;10.93;100.00;101773.50;7393535;19;20392;-53
2022/11/10 11:11:37;;;;;;;31.83;13.30;;;;;;;10.98;100.00;101771.16;7391963;19;20438;-54
2022/11/10 11:14:26;;;;;;;22.20;10.37;;;;;;;11.14;100.00;101775.53;7392730;19;20385;-52
2022/11/10 11:16:59;;;;;;;31.57;9.37;;;;;;;11.08;100.00;101786.38;7393554;19;20412;-55
2022/11/10 11:19:32;;;;;;;23.80;10.60;;;;;;;11.16;100.00;101786.81;7390420;19;20413;-51
2022/11/10 11:22:12;;;;;;;30.57;11.10;;;;;;;11.18;100.00;101790.38;7393596;19;20436;-53
2022/11/10 11:24:44;;;;;;;32.73;10.17;;;;;;;11.12;100.00;101796.91;7389746;19;20952;-50
2022/11/10 11:27:18;;;;;;;23.27;9.63;;;;;;;11.12;100.00;101800.38;7394047;19;20393;-52
2022/11/10 11:29:59;;;;;;;18.50;9.60;;;;;;;11.13;100.00;101806.44;7388332;19;20401;-50
2022/11/10 11:32:51;;;;;;;16.60;8.13;;;;;;;11.11;100.00;101802.84;7393642;19;20951;-51
2022/11/10 11:35:27;;;;;;;28.90;10.73;;;;;;;11.13;100.00;101796.97;7391219;19;20447;-54
2022/11/10 11:38:04;;;;;;;23.77;9.37;;;;;;;11.17;100.00;101804.09;7393258;19;20419;-51
2022/11/10 11:40:43;;;;;;;19.20;9.70;;;;;;;11.18;100.00;101805.00;7388867;19;20492;-54
2022/11/10 11:43:25;;;;;;;22.93;9.77;;;;;;;11.20;100.00;101813.72;7393971;19;20377;-51
2022/11/10 11:45:59;;;;;;;23.27;8.47;;;;;;;11.29;100.00;101800.44;7388987;19;20421;-51